Time;durP1;ratioP1;P1;durP2;ratioP2;P2;SDS_P1;SDS_P2;PMS_P1;PMS_P2;Temp;Humidity;BMP_temperature;BMP_pressure;BME280_temperature;BME280_humidity;BME280_pressure;Samples;Min_cycle;Max_cycle;Signal;HPM_P1;HPM_P2
2022/03/29 04:32:05;;;;;;;;;19.75;17.25;;;;;17.58;32.88;100663.91;3298516;26;46065;-76
2022/03/29 04:34:32;;;;;;;;;24.50;20.75;;;;;17.30;32.97;100616.34;5042955;28;45375;-77
2022/03/29 04:36:59;;;;;;;;;21.25;19.25;;;;;17.53;32.76;100657.97;5044959;28;45340;-76
2022/03/29 04:39:24;;;;;;;;;23.50;19.50;;;;;17.54;33.18;100653.41;5045192;28;45446;-76
2022/03/29 04:41:50;;;;;;;;;22.50;16.75;;;;;17.54;32.99;100658.84;5045710;28;45669;-76
2022/03/29 04:44:15;;;;;;;;;20.25;19.75;;;;;17.44;33.18;100642.41;5044649;28;45914;-76
2022/03/29 04:46:41;;;;;;;;;25.25;21.00;;;;;17.49;33.34;100663.75;5045416;28;45419;-76
2022/03/29 04:49:06;;;;;;;;;22.00;16.75;;;;;17.46;33.10;100650.41;5044402;28;45285;-77
2022/03/29 04:51:33;;;;;;;;;24.00;20.00;;;;;17.49;33.46;100640.22;5045396;28;45323;-76
2022/03/29 04:53:59;;;;;;;;;25.00;21.00;;;;;17.28;33.48;100607.47;5046866;28;45338;-78
2022/03/29 04:56:24;;;;;;;;;19.50;11.25;;;;;17.42;33.60;100651.66;5040221;28;45265;-77
2022/03/29 04:58:50;;;;;;;;;19.50;17.75;;;;;17.38;33.78;100662.72;5042947;28;45514;-76
2022/03/29 05:01:15;;;;;;;;;20.75;19.50;;;;;17.29;33.90;100659.81;5043269;28;45355;-76
2022/03/29 05:03:41;;;;;;;;;22.75;19.75;;;;;17.29;34.29;100674.25;5043364;28;45354;-76
2022/03/29 05:06:06;;;;;;;;;24.50;16.00;;;;;17.20;34.14;100664.09;5045288;28;45311;-77
2022/03/29 05:08:32;;;;;;;;;23.00;18.75;;;;;17.19;34.49;100651.50;5037191;28;45391;-77
2022/03/29 05:10:57;;;;;;;;;29.00;17.25;;;;;17.25;34.05;100650.22;5037998;28;45605;-75
2022/03/29 05:13:23;;;;;;;;;24.00;18.75;;;;;17.24;33.87;100648.47;5040485;28;46101;-71
2022/03/29 05:15:48;;;;;;;;;24.50;19.25;;;;;17.25;33.83;100663.75;5036244;28;45362;-77
2022/03/29 05:18:14;;;;;;;;;22.50;17.50;;;;;17.22;34.21;100654.00;5035711;28;45337;-75
2022/03/29 05:20:39;;;;;;;;;18.50;17.25;;;;;17.22;34.02;100639.59;5036279;28;45225;-75
2022/03/29 05:23:08;;;;;;;;;23.25;19.50;;;;;17.17;33.99;100620.13;5036028;28;46029;-77
2022/03/29 05:25:35;;;;;;;;;23.25;20.25;;;;;17.27;34.33;100649.09;5035545;28;45371;-73
2022/03/29 05:28:01;;;;;;;;;28.75;22.50;;;;;17.33;34.33;100650.50;5035872;28;45420;-74
2022/03/29 05:30:27;;;;;;;;;29.00;23.00;;;;;17.30;34.10;100637.16;5037028;28;45570;-76
2022/03/29 05:32:57;;;;;;;;;26.50;20.00;;;;;17.38;33.94;100645.59;5035905;28;45761;-75
2022/03/29 05:35:25;;;;;;;;;23.50;22.50;;;;;17.33;33.89;100651.38;5034971;28;45897;-77
2022/03/29 05:37:51;;;;;;;;;26.00;19.75;;;;;17.21;34.26;100622.47;5036547;28;45435;-82
2022/03/29 05:40:16;;;;;;;;;25.75;18.00;;;;;17.41;34.94;100650.78;5036855;28;45384;-81
2022/03/29 05:42:44;;;;;;;;;23.25;21.00;;;;;17.43;34.32;100638.00;5035743;28;45491;-75
2022/03/29 05:45:11;;;;;;;;;24.75;20.75;;;;;17.45;34.24;100621.59;5036574;28;45345;-79
2022/03/29 05:50:21;;;;;;;;;21.25;20.25;;;;;17.39;34.03;100631.91;5035788;28;45413;-75
2022/03/29 05:52:46;;;;;;;;;30.25;20.00;;;;;17.10;34.78;100597.19;5035381;28;46459;-77
2022/03/29 05:55:12;;;;;;;;;20.00;17.75;;;;;17.34;34.97;100641.38;5035575;28;45297;-76
2022/03/29 05:57:38;;;;;;;;;22.75;18.50;;;;;17.34;34.68;100642.25;5035322;28;45407;-76
2022/03/29 06:00:06;;;;;;;;;28.00;22.75;;;;;17.24;34.03;100629.50;5035424;28;45359;-74
2022/03/29 06:02:32;;;;;;;;;18.75;17.25;;;;;17.24;34.40;100629.50;5034569;28;45383;-76
2022/03/29 06:04:58;;;;;;;;;24.50;19.75;;;;;17.21;34.17;100635.16;5035522;28;45247;-74
2022/03/29 06:07:24;;;;;;;;;24.00;22.25;;;;;17.22;34.27;100642.31;5035278;28;45531;-75
2022/03/29 06:09:50;;;;;;;;;24.50;21.00;;;;;17.23;34.64;100652.16;5035195;28;45533;-74
2022/03/29 06:12:21;;;;;;;;;25.00;23.00;;;;;17.20;34.30;100658.66;5034843;28;45312;-75
2022/03/29 06:14:46;;;;;;;;;23.00;18.50;;;;;17.13;34.04;100641.16;5035124;28;45383;-75
2022/03/29 06:17:11;;;;;;;;;26.75;21.00;;;;;17.20;34.23;100646.97;5037652;28;45566;-73
2022/03/29 06:19:37;;;;;;;;;22.50;19.50;;;;;17.17;34.02;100634.53;5041460;28;45545;-75
2022/03/29 06:22:03;;;;;;;;;23.50;19.00;;;;;17.21;33.85;100646.84;5033820;28;45952;-75
2022/03/29 06:24:29;;;;;;;;;25.25;19.50;;;;;17.23;33.54;100660.28;5017520;28;45356;-76
2022/03/29 06:26:54;;;;;;;;;29.00;22.25;;;;;17.21;33.50;100654.13;5035358;28;45308;-75
2022/03/29 06:29:19;;;;;;;;;28.25;21.00;;;;;17.22;33.97;100662.13;5035180;28;45253;-75
2022/03/29 06:31:45;;;;;;;;;22.75;18.25;;;;;17.28;33.94;100663.50;5034511;28;46460;-75
2022/03/29 06:34:10;;;;;;;;;22.25;18.50;;;;;17.20;33.57;100644.25;5034671;28;45504;-75
2022/03/29 06:36:36;;;;;;;;;17.50;16.50;;;;;17.30;34.03;100666.97;5034006;28;45258;-75
2022/03/29 06:39:01;;;;;;;;;26.25;17.75;;;;;17.29;34.54;100662.53;5033908;28;45488;-75
2022/03/29 06:41:28;;;;;;;;;21.25;20.25;;;;;17.29;34.17;100652.56;5034405;28;45855;-75
2022/03/29 06:43:53;;;;;;;;;29.50;22.25;;;;;17.32;34.56;100648.75;5016828;28;45398;-75
2022/03/29 06:46:18;;;;;;;;;22.25;20.25;;;;;17.33;34.94;100650.50;5035006;28;45439;-75
2022/03/29 06:48:45;;;;;;;;;27.00;22.00;;;;;17.29;34.80;100644.44;5034414;28;45552;-75
2022/03/29 06:51:13;;;;;;;;;25.00;21.50;;;;;17.38;34.04;100656.41;5034759;28;46224;-74
2022/03/29 06:53:42;;;;;;;;;32.25;23.25;;;;;17.33;34.69;100650.50;5034853;28;45414;-76
2022/03/29 06:56:08;;;;;;;;;21.50;17.25;;;;;17.45;34.70;100664.94;5034987;28;45371;-76
2022/03/29 06:58:35;;;;;;;;;28.25;23.00;;;;;17.28;34.36;100640.00;5034644;28;45501;-75
2022/03/29 07:01:00;;;;;;;;;25.50;23.25;;;;;17.49;34.35;100652.91;5034669;28;46089;-76
2022/03/29 07:03:27;;;;;;;;;24.75;21.50;;;;;17.47;34.61;100644.03;5034022;28;45347;-73
2022/03/29 07:05:53;;;;;;;;;30.25;27.25;;;;;17.57;34.70;100645.06;5034770;28;45331;-75
2022/03/29 07:08:20;;;;;;;;;27.25;24.00;;;;;17.59;34.77;100640.38;5034618;28;45503;-75
2022/03/29 07:13:30;;;;;;;;;28.25;21.75;;;;;17.62;34.70;100645.59;5034455;28;45250;-75
2022/03/29 07:15:56;;;;;;;;;27.25;17.75;;;;;17.62;34.60;100629.31;5016669;28;45332;-75
2022/03/29 07:18:21;;;;;;;;;22.50;19.50;;;;;17.55;34.27;100617.19;5034195;28;45282;-74
2022/03/29 07:20:47;;;;;;;;;27.50;25.50;;;;;17.66;33.44;100626.28;5034493;28;45584;-76
2022/03/29 07:23:12;;;;;;;;;41.00;28.50;;;;;17.71;33.50;100637.63;5034737;28;45277;-75
2022/03/29 07:25:38;;;;;;;;;27.75;25.25;;;;;17.62;33.71;100618.47;5034399;28;45875;-75
2022/03/29 07:28:04;;;;;;;;;26.00;23.50;;;;;17.67;33.83;100619.00;5034127;28;45356;-76
2022/03/29 07:30:33;;;;;;;;;30.00;27.75;;;;;17.69;33.64;100614.34;5034162;28;45562;-76
2022/03/29 07:32:59;;;;;;;;;33.50;25.75;;;;;17.74;33.93;100623.81;5033361;28;45320;-75
2022/03/29 07:35:28;;;;;;;;;29.75;22.00;;;;;17.75;34.36;100617.44;5034325;28;45253;-75
2022/03/29 07:37:54;;;;;;;;;28.25;20.00;;;;;17.71;34.33;100615.91;5033950;28;45394;-75
2022/03/29 07:40:22;;;;;;;;;27.25;26.00;;;;;17.59;34.49;100595.16;5034381;28;45496;-74
2022/03/29 07:42:49;;;;;;;;;31.50;24.25;;;;;17.78;34.68;100610.88;5034052;28;45241;-75
2022/03/29 07:45:16;;;;;;;;;25.00;23.75;;;;;17.85;33.83;100625.72;5032796;28;45428;-76
2022/03/29 07:47:44;;;;;;;;;30.25;25.50;;;;;17.86;34.03;100619.31;5034048;28;45517;-74
2022/03/29 07:50:11;;;;;;;;;31.25;28.50;;;;;17.88;33.96;100627.31;5038089;28;46247;-75
2022/03/29 07:52:39;;;;;;;;;27.50;26.50;;;;;17.86;34.05;100613.88;5038497;28;45490;-74
2022/03/29 07:55:06;;;;;;;;;28.75;27.00;;;;;17.89;33.58;100607.34;5039049;28;45328;-75
2022/03/29 07:57:32;;;;;;;;;35.00;26.00;;;;;17.91;32.79;100598.09;5037472;28;45436;-74
2022/03/29 07:59:58;;;;;;;;;33.00;27.25;;;;;18.00;33.27;100607.38;5038809;28;46246;-75
2022/03/29 08:02:23;;;;;;;;;30.50;22.50;;;;;17.96;32.87;100590.47;5037257;28;45514;-77
2022/03/29 08:04:48;;;;;;;;;26.75;24.75;;;;;18.04;32.65;100607.00;5037920;28;45552;-75
2022/03/29 08:07:14;;;;;;;;;40.25;28.00;;;;;18.08;33.07;100603.06;5037507;28;45382;-76
2022/03/29 08:09:39;;;;;;;;;24.50;21.25;;;;;18.08;33.41;100597.63;5037963;28;46091;-76
2022/03/29 08:12:05;;;;;;;;;33.75;22.75;;;;;18.16;33.82;100599.72;5037517;28;45316;-76
2022/03/29 08:14:31;;;;;;;;;33.00;26.50;;;;;18.19;33.17;100596.78;5037848;28;45366;-74
2022/03/29 08:16:56;;;;;;;;;29.25;25.75;;;;;18.24;33.86;100599.13;5036746;28;45387;-74
2022/03/29 08:19:25;;;;;;;;;32.00;26.75;;;;;18.23;33.43;100581.97;5036730;28;45938;-76
2022/03/29 08:21:50;;;;;;;;;39.00;25.25;;;;;18.36;33.54;100603.56;5036954;28;45470;-77
2022/03/29 08:24:24;;;;;;;;;38.50;30.25;;;;;18.37;33.60;100592.56;5037457;28;45267;-74
2022/03/29 08:26:52;;;;;;;;;33.25;26.00;;;;;18.45;33.67;100590.13;5036695;28;45679;-74
2022/03/29 08:29:21;;;;;;;;;33.25;28.25;;;;;18.52;33.88;100585.06;5037067;28;46417;-76
2022/03/29 08:31:49;;;;;;;;;32.50;26.00;;;;;18.54;33.65;100581.22;5036530;28;45315;-75
2022/03/29 08:34:16;;;;;;;;;32.00;26.75;;;;;18.60;33.54;100571.75;5036484;28;45327;-76
2022/03/29 08:36:41;;;;;;;;;34.00;28.50;;;;;18.63;33.70;100581.50;5036916;28;46593;-75
2022/03/29 08:39:08;;;;;;;;;35.50;26.75;;;;;18.39;33.17;100544.47;5036929;28;45320;-75
2022/03/29 08:41:39;;;;;;;;;33.75;24.25;;;;;18.54;33.66;100548.63;5036975;28;45382;-75
2022/03/29 08:44:06;;;;;;;;;33.50;29.50;;;;;18.68;33.72;100573.84;5036805;28;45424;-75
2022/03/29 08:46:35;;;;;;;;;41.25;30.75;;;;;18.67;33.55;100553.09;5037442;28;45300;-75
2022/03/29 08:49:02;;;;;;;;;31.75;26.00;;;;;18.78;33.26;100561.22;5036430;28;45964;-75
2022/03/29 08:51:28;;;;;;;;;31.75;25.50;;;;;18.83;33.17;100564.41;5037207;28;45455;-76
2022/03/29 08:53:54;;;;;;;;;39.00;31.50;;;;;18.79;33.34;100549.38;5036648;28;45305;-75
2022/03/29 08:56:19;;;;;;;;;33.75;26.50;;;;;18.89;33.33;100548.47;5037180;28;45538;-76
2022/03/29 08:58:45;;;;;;;;;32.00;26.25;;;;;18.96;33.43;100554.28;5036499;28;45494;-76
2022/03/29 09:01:10;;;;;;;;;37.25;30.00;;;;;18.94;33.14;100544.50;5017632;28;45328;-75
2022/03/29 09:03:36;;;;;;;;;33.75;30.00;;;;;19.00;33.62;100552.13;5035931;28;45936;-78
2022/03/29 09:06:09;;;;;;;;;38.25;30.75;;;;;19.10;33.05;100544.94;5036648;28;45469;-75
2022/03/29 09:08:45;;;;;;;;;39.00;29.50;;;;;19.05;32.90;100522.75;5036206;28;45655;-76
2022/03/29 09:11:12;;;;;;;;;39.25;32.00;;;;;19.08;33.25;100526.03;5036215;28;45364;-75
2022/03/29 09:13:39;;;;;;;;;33.00;26.25;;;;;19.26;33.23;100539.94;5036503;28;45387;-75
2022/03/29 09:16:07;;;;;;;;;33.25;26.25;;;;;19.28;33.06;100529.78;5034831;28;45519;-76
2022/03/29 09:18:32;;;;;;;;;30.00;24.50;;;;;19.33;33.14;100537.53;5035673;28;46765;-75
2022/03/29 09:21:16;;;;;;;;;34.75;27.00;;;;;19.31;33.31;100537.66;5036537;28;45360;-76
2022/03/29 09:23:43;;;;;;;;;26.25;23.50;;;;;19.31;33.53;100532.22;5036549;28;45382;-75
2022/03/29 09:26:26;;;;;;;;;36.25;28.25;;;;;19.32;33.56;100535.81;5036280;28;45450;-75
2022/03/29 09:28:52;;;;;;;;;29.50;23.75;;;;;19.34;33.40;100529.25;5025060;28;46217;-75
2022/03/29 09:31:19;;;;;;;;;35.00;31.75;;;;;19.35;32.82;100531.00;5017760;28;45506;-76
2022/03/29 09:33:45;;;;;;;;;42.00;32.00;;;;;19.31;32.97;100528.69;5036004;28;45355;-76
2022/03/29 09:36:14;;;;;;;;;36.75;28.75;;;;;19.28;33.26;100535.22;5036014;28;45312;-75
2022/03/29 09:38:42;;;;;;;;;33.50;29.50;;;;;19.31;33.22;100537.66;5034453;28;47878;-75
2022/03/29 09:41:21;;;;;;;;;46.00;32.50;;;;;19.33;33.41;100532.97;5034454;28;45414;-75
2022/03/29 09:44:08;;;;;;;;;36.50;29.50;;;;;19.34;33.84;100528.41;5035595;28;45379;-76
2022/03/29 09:47:04;;;;;;;;;41.25;29.25;;;;;19.44;34.14;100521.19;5036040;28;45340;-76
2022/03/29 09:49:47;;;;;;;;;33.50;28.50;;;;;19.45;34.10;100510.19;5028191;28;47161;-76
2022/03/29 09:52:17;;;;;;;;;41.00;28.75;;;;;19.59;33.66;100514.44;5035474;28;45369;-76
2022/03/29 09:55:13;;;;;;;;;18.50;18.50;;;;;19.63;33.91;100505.91;5036281;28;45479;-76
2022/03/29 09:57:43;;;;;;;;;32.50;28.50;;;;;19.76;33.80;100516.53;5034886;28;45340;-75
2022/03/29 10:00:14;;;;;;;;;40.75;32.00;;;;;19.79;33.61;100510.84;5035679;28;45352;-76
2022/03/29 10:02:41;;;;;;;;;37.00;30.75;;;;;19.85;33.63;100507.56;5034840;28;45394;-76
2022/03/29 10:05:10;;;;;;;;;28.50;28.00;;;;;19.91;33.98;100501.59;5035533;28;45446;-76
2022/03/29 10:07:41;;;;;;;;;33.25;27.50;;;;;19.96;33.84;100493.91;5035684;28;45311;-75
2022/03/29 10:10:07;;;;;;;;;28.75;26.25;;;;;19.98;33.46;100486.47;5035539;28;46297;-74
2022/03/29 10:12:34;;;;;;;;;32.50;30.00;;;;;20.11;33.25;100491.66;5035662;28;45284;-76
2022/03/29 10:15:01;;;;;;;;;37.00;30.25;;;;;20.18;32.75;100497.41;5035392;28;45399;-75
2022/03/29 10:17:27;;;;;;;;;41.00;32.25;;;;;20.11;33.10;100466.28;5034695;28;45807;-76
2022/03/29 10:19:54;;;;;;;;;44.25;34.50;;;;;20.23;32.98;100468.78;5035065;28;45795;-78
2022/03/29 10:22:20;;;;;;;;;32.25;28.50;;;;;20.23;32.82;100463.34;5035183;28;45453;-78
2022/03/29 10:24:45;;;;;;;;;34.00;25.25;;;;;20.42;33.29;100483.47;5035594;28;45305;-73
2022/03/29 10:27:11;;;;;;;;;37.00;29.25;;;;;20.49;32.28;100480.06;5035558;28;45477;-73
2022/03/29 10:29:40;;;;;;;;;37.00;29.50;;;;;20.49;32.58;100477.34;5035071;28;46132;-77
2022/03/29 10:32:05;;;;;;;;;37.25;29.00;;;;;20.63;32.37;100479.66;5034510;28;45391;-77
2022/03/29 10:34:40;;;;;;;;;32.00;29.00;;;;;20.75;32.36;100470.34;5034732;28;45376;-77
2022/03/29 10:37:19;;;;;;;;;35.00;31.75;;;;;20.72;31.64;100450.69;5035408;28;45340;-78
2022/03/29 10:39:47;;;;;;;;;38.50;29.75;;;;;20.97;32.28;100474.66;5034952;28;46018;-78
2022/03/29 10:42:37;;;;;;;;;37.50;31.00;;;;;21.10;32.30;100463.44;5035115;28;45270;-79
2022/03/29 10:45:07;;;;;;;;;36.00;31.75;;;;;21.19;32.07;100454.44;5035583;28;45318;-78
2022/03/29 10:47:33;;;;;;;;;37.75;29.25;;;;;21.17;31.49;100436.50;5034710;28;45279;-79
2022/03/29 10:49:59;;;;;;;;;34.75;28.00;;;;;21.34;31.54;100453.00;5035138;28;45573;-78
2022/03/29 10:52:25;;;;;;;;;32.50;31.50;;;;;21.39;31.39;100458.88;5034778;28;45482;-77
2022/03/29 10:55:00;;;;;;;;;35.25;30.50;;;;;21.34;30.86;100431.19;5035490;28;45321;-79
2022/03/29 10:57:31;;;;;;;;;41.00;33.00;;;;;21.56;30.84;100459.09;5034953;28;45435;-77
2022/03/29 11:00:11;;;;;;;;;38.25;33.50;;;;;21.64;30.66;100451.03;5034955;28;46268;-79
2022/03/29 11:02:38;;;;;;;;;44.00;32.00;;;;;21.69;30.76;100435.94;5034279;28;45370;-77
2022/03/29 11:05:07;;;;;;;;;33.75;29.25;;;;;21.77;29.90;100441.53;5034778;28;45498;-76
2022/03/29 11:07:59;;;;;;;;;40.00;30.75;;;;;21.82;30.57;100443.81;5034710;28;45556;-73
2022/03/29 11:10:39;;;;;;;;;22.00;12.50;;;;;21.84;29.90;100447.25;5020892;28;46273;-74
2022/03/29 11:13:38;;;;;;;;;39.50;34.00;;;;;21.75;29.54;100442.69;5034352;28;45335;-75
2022/03/29 11:16:41;;;;;;;;;39.25;32.25;;;;;21.72;29.99;100441.09;5034534;28;45298;-73
2022/03/29 11:19:40;;;;;;;;;41.25;31.00;;;;;21.67;30.08;100434.38;4990721;28;45516;-73
2022/03/29 11:22:29;;;;;;;;;39.75;32.75;;;;;21.61;30.60;100435.81;4992177;28;45397;-74
2022/03/29 11:25:05;;;;;;;;;34.00;31.25;;;;;21.56;29.82;100424.50;5027262;28;45376;-74
2022/03/29 11:27:34;;;;;;;;;41.00;32.25;;;;;21.46;29.97;100432.72;5034489;28;45375;-74
2022/03/29 11:30:03;;;;;;;;;42.75;33.25;;;;;21.39;29.90;100420.69;5033810;28;46174;-73
2022/03/29 11:32:29;;;;;;;;;36.75;32.50;;;;;21.40;30.21;100427.84;5033389;28;47159;-74
2022/03/29 11:34:57;;;;;;;;;35.25;29.50;;;;;21.40;30.63;100411.50;5033963;28;45367;-74
2022/03/29 11:37:29;;;;;;;;;31.00;27.50;;;;;21.46;30.28;100424.53;5034817;28;45323;-73
2022/03/29 11:39:55;;;;;;;;;41.50;34.50;;;;;21.47;30.75;100411.75;5034253;28;45343;-74
2022/03/29 11:42:21;;;;;;;;;34.75;31.75;;;;;21.57;29.50;100419.91;5035080;28;46393;-76
2022/03/29 11:44:48;;;;;;;;;25.75;18.00;;;;;21.56;29.46;100416.31;5016771;28;45321;-77
2022/03/29 11:47:14;;;;;;;;;35.75;30.00;;;;;21.59;29.67;100417.91;5034412;28;45535;-77
2022/03/29 11:49:41;;;;;;;;;43.75;30.00;;;;;21.64;30.06;100419.16;5034066;28;45236;-75
2022/03/29 11:52:12;;;;;;;;;36.75;30.50;;;;;21.68;30.13;100417.88;5033768;28;46270;-75
2022/03/29 11:54:46;;;;;;;;;39.25;30.00;;;;;21.74;30.01;100416.41;5034553;28;45330;-80
2022/03/29 11:57:20;;;;;;;;;36.75;31.50;;;;;21.79;29.09;100411.34;5017118;28;45605;-75
2022/03/29 11:59:46;;;;;;;;;39.50;32.50;;;;;21.82;29.45;100413.78;5037378;28;45421;-75
2022/03/29 12:02:12;;;;;;;;;46.25;33.50;;;;;21.90;29.18;100413.88;5034520;28;45446;-78
2022/03/29 12:04:38;;;;;;;;;38.50;32.50;;;;;21.96;29.70;100416.00;5036738;28;45275;-75
2022/03/29 12:07:04;;;;;;;;;40.00;31.50;;;;;21.97;29.07;100405.94;5036745;28;45372;-77
2022/03/29 12:09:31;;;;;;;;;36.25;30.00;;;;;22.08;28.81;100412.09;5037564;28;45230;-77
2022/03/29 12:11:59;;;;;;;;;36.00;29.00;;;;;22.19;28.82;100391.94;5036679;28;45614;-76
2022/03/29 12:14:25;;;;;;;;;41.75;35.25;;;;;22.04;28.52;100372.47;5037489;28;45439;-77
2022/03/29 12:17:02;;;;;;;;;38.50;32.25;;;;;22.23;28.76;100390.59;5035671;28;45442;-78
2022/03/29 12:19:29;;;;;;;;;33.00;29.00;;;;;22.30;28.55;100391.69;5025807;28;45241;-77
2022/03/29 12:22:00;;;;;;;;;42.00;31.50;;;;;22.29;28.34;100378.22;5033771;28;46473;-77
2022/03/29 12:24:38;;;;;;;;;46.50;35.00;;;;;22.44;28.81;100382.13;5034384;28;45434;-76
2022/03/29 12:27:10;;;;;;;;;43.50;35.50;;;;;22.49;28.68;100368.84;5030156;28;45357;-76
2022/03/29 12:29:42;;;;;;;;;37.00;31.75;;;;;22.46;27.78;100364.53;5033801;28;45392;-76
2022/03/29 12:32:08;;;;;;;;;41.50;33.25;;;;;22.34;27.47;100374.00;5033690;28;46163;-76
2022/03/29 12:34:34;;;;;;;;;40.50;32.75;;;;;22.15;28.08;100377.72;5033960;28;45461;-77
2022/03/29 12:37:11;;;;;;;;;34.25;30.00;;;;;21.98;28.32;100374.94;5037360;28;45367;-76
2022/03/29 12:39:39;;;;;;;;;34.25;26.75;;;;;21.75;29.04;100380.78;5037111;28;45403;-75
2022/03/29 12:42:11;;;;;;;;;37.50;30.25;;;;;21.32;30.47;100375.06;5019203;28;45841;-77
2022/03/29 12:44:46;;;;;;;;;32.50;29.00;;;;;21.02;30.70;100379.69;5037188;28;45493;-77
2022/03/29 12:47:16;;;;;;;;;40.00;29.50;;;;;20.58;31.47;100348.50;5037050;28;45434;-79
2022/03/29 12:49:45;;;;;;;;;38.25;26.75;;;;;20.45;31.83;100377.84;5019060;28;47337;-77
2022/03/29 12:52:12;;;;;;;;;41.25;32.00;;;;;20.18;32.73;100364.88;5036819;28;45357;-75
2022/03/29 12:54:41;;;;;;;;;33.25;29.00;;;;;19.92;35.36;100370.00;5037042;28;45410;-75
2022/03/29 12:57:10;;;;;;;;;35.00;27.50;;;;;19.73;36.91;100386.28;5036970;28;45348;-76
2022/03/29 12:59:41;;;;;;;;;32.50;28.50;;;;;19.46;38.32;100373.25;5037041;28;45304;-78
2022/03/29 13:02:17;;;;;;;;;30.50;25.75;;;;;19.31;38.75;100390.88;5036299;28;46051;-77
2022/03/29 13:05:03;;;;;;;;;21.25;19.25;;;;;18.92;40.15;100392.50;5036922;28;45265;-78
2022/03/29 13:07:45;;;;;;;;;29.50;25.00;;;;;18.67;42.10;100392.88;5036997;28;45372;-78
2022/03/29 13:10:16;;;;;;;;;35.75;28.75;;;;;18.39;43.80;100395.19;5036652;28;45380;-77
2022/03/29 13:12:52;;;;;;;;;33.75;28.25;;;;;18.24;45.11;100396.47;5036793;28;46018;-77
2022/03/29 13:15:42;;;;;;;;;33.00;26.25;;;;;18.28;46.20;100388.94;5036233;28;45352;-74
2022/03/29 13:18:26;;;;;;;;;32.00;25.75;;;;;18.27;45.55;100398.94;5040546;28;45535;-78
2022/03/29 13:21:03;;;;;;;;;32.75;30.25;;;;;18.12;46.10;100387.47;5036770;28;45656;-75
2022/03/29 13:23:28;;;;;;;;;34.00;30.00;;;;;18.07;47.65;100391.56;5036910;28;45458;-77
2022/03/29 13:25:54;;;;;;;;;32.25;25.25;;;;;17.89;48.01;100384.94;5036238;28;45564;-78
2022/03/29 13:28:19;;;;;;;;;35.00;29.75;;;;;17.73;46.90;100356.38;5039863;28;45541;-75
2022/03/29 13:30:45;;;;;;;;;28.50;26.75;;;;;17.84;47.98;100388.03;5038638;28;45474;-77
2022/03/29 13:33:10;;;;;;;;;32.00;28.50;;;;;17.83;47.74;100382.75;5037537;28;45374;-77
2022/03/29 13:35:42;;;;;;;;;33.00;29.00;;;;;17.80;48.65;100382.97;5036130;28;45304;-78
2022/03/29 13:38:08;;;;;;;;;23.25;22.00;;;;;17.73;47.30;100391.63;5036248;28;45483;-76
2022/03/29 13:40:33;;;;;;;;;34.75;30.25;;;;;17.60;48.05;100388.16;5036448;28;45459;-77
2022/03/29 13:42:59;;;;;;;;;34.00;30.00;;;;;17.56;48.93;100386.66;5035228;28;46055;-75
2022/03/29 13:45:24;;;;;;;;;30.25;26.00;;;;;17.58;47.52;100382.00;5036242;28;45660;-77
2022/03/29 13:47:51;;;;;;;;;34.75;26.25;;;;;17.55;48.39;100365.09;5036182;28;45447;-75
2022/03/29 13:50:16;;;;;;;;;30.75;25.50;;;;;17.71;48.15;100393.59;5036541;28;45553;-76
2022/03/29 13:52:41;;;;;;;;;28.75;23.00;;;;;17.69;49.04;100395.56;5035912;28;45326;-76
2022/03/29 13:55:07;;;;;;;;;29.50;25.75;;;;;17.57;48.53;100382.13;5037041;28;45249;-75
2022/03/29 13:57:33;;;;;;;;;26.50;25.75;;;;;17.64;49.62;100383.38;5036354;28;45390;-75
2022/03/29 13:59:58;;;;;;;;;24.50;21.75;;;;;17.71;50.75;100376.47;5035967;28;45561;-77
2022/03/29 14:02:24;;;;;;;;;29.25;22.00;;;;;17.74;48.64;100376.22;5035622;28;45435;-77
2022/03/29 14:04:49;;;;;;;;;20.50;17.50;;;;;17.68;48.36;100372.16;5036019;28;45345;-75
2022/03/29 14:07:15;;;;;;;;;28.50;19.00;;;;;17.61;48.77;100370.03;5035712;28;45710;-78
2022/03/29 14:09:41;;;;;;;;;21.50;16.50;;;;;17.53;49.15;100365.22;5035791;28;45553;-75
2022/03/29 14:12:06;;;;;;;;;22.50;19.00;;;;;17.56;49.14;100370.41;5034644;28;45382;-76
2022/03/29 14:14:32;;;;;;;;;21.00;16.50;;;;;17.58;49.37;100367.56;5035996;28;45265;-76
2022/03/29 14:16:57;;;;;;;;;24.50;19.00;;;;;17.48;49.01;100345.78;5035797;28;45224;-77
2022/03/29 14:19:23;;;;;;;;;20.25;14.25;;;;;17.59;48.72;100364.75;5036567;28;45580;-77
2022/03/29 14:21:49;;;;;;;;;19.50;13.50;;;;;17.55;48.69;100368.69;5040231;28;45507;-77
2022/03/29 14:24:14;;;;;;;;;17.50;14.50;;;;;17.42;47.92;100348.13;5035717;28;45383;-76
2022/03/29 14:26:39;;;;;;;;;19.50;13.75;;;;;17.31;48.83;100335.44;5009073;28;45402;-78
2022/03/29 14:29:06;;;;;;;;;20.25;14.25;;;;;17.47;49.15;100348.59;5017713;28;46181;-77
2022/03/29 14:31:32;;;;;;;;;20.25;13.00;;;;;17.52;48.86;100359.94;5034928;28;47205;-79
2022/03/29 14:33:57;;;;;;;;;18.25;15.00;;;;;17.48;49.34;100344.91;5017341;28;45319;-81
2022/03/29 14:36:24;;;;;;;;;16.50;15.00;;;;;17.39;50.58;100344.66;5035774;28;45351;-76
2022/03/29 14:38:50;;;;;;;;;20.75;19.50;;;;;17.29;49.71;100334.69;5035611;28;45477;-77
2022/03/29 14:41:16;;;;;;;;;25.25;16.50;;;;;17.21;49.50;100338.00;5035702;28;45467;-76
2022/03/29 14:43:42;;;;;;;;;18.50;16.75;;;;;17.18;50.79;100340.94;5036264;28;45318;-78
2022/03/29 14:46:08;;;;;;;;;30.25;20.50;;;;;17.25;50.34;100352.19;5035716;28;45498;-76
2022/03/29 14:48:33;;;;;;;;;23.50;18.00;;;;;17.13;51.32;100335.03;5031186;28;45514;-75
2022/03/29 14:51:02;;;;;;;;;22.25;17.75;;;;;17.14;51.29;100342.19;5028062;28;45494;-75
2022/03/29 14:53:32;;;;;;;;;25.00;20.25;;;;;17.22;50.81;100339.72;5027039;28;45385;-75
2022/03/29 14:55:58;;;;;;;;;26.25;17.00;;;;;17.29;50.93;100340.97;5017021;28;45486;-73
2022/03/29 14:58:24;;;;;;;;;22.00;17.50;;;;;17.18;52.03;100313.84;5033978;28;45584;-74
2022/03/29 15:00:49;;;;;;;;;23.50;22.00;;;;;17.29;51.82;100330.13;5034600;28;45948;-74
2022/03/29 15:03:15;;;;;;;;;24.75;17.50;;;;;17.27;52.22;100314.97;5034664;28;45379;-77
2022/03/29 15:05:41;;;;;;;;;26.50;20.75;;;;;17.37;51.28;100321.38;5034687;28;45317;-74
2022/03/29 15:08:06;;;;;;;;;18.50;17.25;;;;;17.42;51.53;100327.31;5035280;28;45578;-75
2022/03/29 15:10:32;;;;;;;;;25.75;18.75;;;;;17.38;51.14;100318.53;5034343;28;45420;-74
2022/03/29 15:12:58;;;;;;;;;22.25;20.50;;;;;17.45;51.31;100321.63;5016470;28;45367;-75
2022/03/29 15:15:24;;;;;;;;;24.75;21.50;;;;;17.37;51.78;100287.00;5034248;28;45717;-75
2022/03/29 15:17:51;;;;;;;;;29.75;21.50;;;;;17.56;51.69;100318.03;5026756;28;45465;-74
2022/03/29 15:20:17;;;;;;;;;23.75;17.75;;;;;17.58;51.71;100306.09;5035776;28;45996;-74
2022/03/29 15:22:43;;;;;;;;;24.50;22.50;;;;;17.48;50.89;100280.72;5034214;28;45352;-74
2022/03/29 15:25:08;;;;;;;;;27.75;20.00;;;;;17.57;52.23;100289.94;5034789;28;45308;-75
2022/03/29 15:27:35;;;;;;;;;29.00;22.75;;;;;17.69;51.23;100294.41;5012468;28;46323;-75
2022/03/29 15:30:03;;;;;;;;;23.50;18.25;;;;;17.72;51.27;100302.28;5032313;28;45378;-74
2022/03/29 15:32:29;;;;;;;;;23.75;19.75;;;;;17.67;51.50;100294.53;5015301;28;45540;-75
2022/03/29 15:34:54;;;;;;;;;29.25;18.25;;;;;17.78;50.65;100299.03;5033963;28;46358;-75
2022/03/29 15:37:32;;;;;;;;;24.75;19.25;;;;;17.75;50.96;100300.19;5033048;28;45573;-75
2022/03/29 15:39:59;;;;;;;;;13.00;8.75;;;;;17.76;51.23;100292.91;5014673;28;48027;-76
2022/03/29 15:42:25;;;;;;;;;26.75;18.50;;;;;17.74;50.91;100295.75;5031553;28;45347;-74
2022/03/29 15:44:51;;;;;;;;;22.25;19.25;;;;;17.67;51.59;100294.53;5032505;28;45339;-75
2022/03/29 15:47:20;;;;;;;;;22.25;19.50;;;;;17.71;51.61;100293.28;5032847;28;45702;-73
2022/03/29 15:49:48;;;;;;;;;20.25;15.50;;;;;17.74;50.60;100289.47;5033246;28;45524;-74
2022/03/29 15:52:14;;;;;;;;;22.00;17.75;;;;;17.74;50.91;100284.91;5032986;28;45359;-75